createdAt,value
2019-04-29T00:04:29.205Z,91.80
2019-04-29T00:06:58.846Z,91.90
2019-04-29T00:09:30.915Z,91.80
2019-04-29T00:12:02.216Z,91.20
2019-04-29T00:14:32.329Z,91.70
2019-04-29T00:17:09.349Z,91.60
2019-04-29T00:22:16.666Z,91.80
2019-04-29T00:24:46.663Z,92.40
2019-04-29T00:27:16.523Z,91.90
2019-04-29T00:29:46.304Z,92.10
2019-04-29T00:32:16.047Z,91.70
2019-04-29T00:34:45.837Z,92.10
2019-04-29T00:37:34.462Z,92.00
2019-04-29T00:40:40.508Z,92.00
2019-04-29T00:43:33.522Z,92.10
2019-04-29T00:46:03.523Z,91.80
2019-04-29T00:51:03.722Z,91.90
2019-04-29T00:53:37.325Z,89.40
2019-04-29T00:56:07.344Z,92.20
2019-04-29T00:58:37.177Z,92.10
2019-04-29T01:01:11.563Z,92.00
2019-04-29T01:03:41.418Z,91.50
2019-04-29T01:06:11.272Z,91.90
2019-04-29T01:08:40.961Z,92.10
2019-04-29T01:11:10.636Z,92.20
2019-04-29T01:13:42.378Z,91.80
2019-04-29T01:16:15.006Z,92.40
2019-04-29T01:18:44.836Z,92.20
2019-04-29T01:21:17.630Z,92.10
2019-04-29T01:23:50.606Z,91.80
2019-04-29T01:26:47.685Z,91.80
2019-04-29T01:29:18.164Z,91.90
2019-04-29T01:31:47.858Z,92.30
2019-04-29T01:34:28.339Z,92.20
2019-04-29T01:36:59.500Z,92.10
2019-04-29T01:39:38.234Z,91.90
2019-04-29T01:42:22.811Z,92.10
2019-04-29T01:44:52.573Z,92.00
2019-04-29T01:47:22.227Z,92.00
2019-04-29T01:49:51.887Z,92.30
2019-04-29T01:52:21.816Z,92.00
2019-04-29T01:54:51.548Z,92.40
2019-04-29T01:57:21.255Z,92.10
2019-04-29T01:59:51.062Z,92.20
2019-04-29T02:02:20.860Z,92.10
2019-04-29T02:04:50.795Z,92.30
2019-04-29T02:07:20.480Z,92.50
2019-04-29T02:09:57.560Z,92.60
2019-04-29T02:12:27.301Z,92.60
2019-04-29T02:14:58.210Z,93.10
2019-04-29T02:17:27.871Z,92.60
2019-04-29T02:19:57.567Z,92.70
2019-04-29T02:22:43.756Z,92.80
2019-04-29T02:25:21.117Z,92.60
2019-04-29T02:27:50.906Z,92.60
2019-04-29T02:30:47.575Z,92.40
2019-04-29T02:33:17.286Z,92.80
2019-04-29T02:35:47.021Z,92.60
2019-04-29T02:38:50.881Z,92.90
2019-04-29T02:41:29.119Z,92.30
2019-04-29T02:44:00.702Z,92.20
2019-04-29T02:46:30.401Z,92.30
2019-04-29T02:49:00.178Z,93.40
2019-04-29T02:52:03.799Z,92.30
2019-04-29T02:54:35.295Z,93.20
2019-04-29T02:57:11.008Z,92.70
2019-04-29T02:59:44.733Z,92.60
2019-04-29T03:02:31.070Z,92.20
2019-04-29T03:05:18.747Z,93.00
2019-04-29T03:07:48.693Z,93.00
2019-04-29T03:10:18.416Z,93.00
2019-04-29T03:12:48.307Z,93.00
2019-04-29T03:15:34.436Z,93.30
2019-04-29T03:18:04.659Z,93.00
2019-04-29T03:20:46.488Z,90.10
2019-04-29T03:23:18.176Z,92.60
2019-04-29T03:25:47.979Z,93.20
2019-04-29T03:28:17.841Z,93.50
2019-04-29T03:30:47.581Z,93.20
2019-04-29T03:33:17.323Z,93.60
2019-04-29T03:35:47.107Z,93.50
2019-04-29T03:38:16.796Z,93.40
2019-04-29T03:40:49.082Z,91.60
2019-04-29T03:43:18.806Z,93.60
2019-04-29T03:45:48.565Z,93.40
2019-04-29T03:48:18.377Z,93.40
2019-04-29T03:50:48.202Z,93.60
2019-04-29T03:53:19.934Z,93.30
2019-04-29T03:55:51.480Z,93.20
2019-04-29T03:58:21.147Z,93.60
2019-04-29T04:00:53.583Z,93.30
2019-04-29T04:03:40.042Z,93.40
2019-04-29T04:06:38.055Z,93.20
2019-04-29T04:09:17.308Z,92.70
2019-04-29T04:11:47.020Z,93.40
2019-04-29T04:17:11.811Z,93.10
2019-04-29T04:19:41.727Z,93.50
2019-04-29T04:22:11.497Z,93.40
2019-04-29T04:24:41.299Z,93.00
2019-04-29T04:27:12.167Z,93.60
2019-04-29T04:29:41.947Z,93.20
2019-04-29T04:32:11.638Z,92.90
2019-04-29T04:34:43.359Z,92.70
2019-04-29T04:37:13.072Z,92.60
2019-04-29T04:39:44.945Z,92.60
2019-04-29T04:42:14.644Z,92.00
2019-04-29T04:49:49.220Z,92.60
2019-04-29T04:52:18.970Z,92.90
2019-04-29T04:54:50.697Z,92.30
2019-04-29T04:59:49.331Z,92.70
2019-04-29T05:02:19.308Z,92.30
2019-04-29T05:04:48.998Z,91.90
2019-04-29T05:07:18.719Z,91.70
2019-04-29T05:09:49.696Z,91.50
2019-04-29T05:12:19.343Z,91.50
2019-04-29T05:14:50.737Z,91.40
2019-04-29T05:17:20.553Z,91.60
2019-04-29T05:19:50.220Z,91.30
2019-04-29T05:22:21.828Z,90.90
2019-04-29T05:24:51.587Z,91.70
2019-04-29T05:27:21.238Z,91.00
2019-04-29T05:29:51.030Z,90.80
2019-04-29T05:32:23.296Z,90.90
2019-04-29T05:37:47.142Z,90.30
2019-04-29T05:40:35.753Z,90.20
2019-04-29T05:43:05.591Z,89.10
2019-04-29T05:45:57.066Z,90.50
2019-04-29T05:51:16.264Z,87.40
2019-04-29T05:53:54.721Z,90.10
2019-04-29T05:56:19.291Z,88.40
2019-04-29T05:58:48.909Z,90.10
2019-04-29T06:03:51.068Z,87.70
2019-04-29T06:06:20.889Z,88.20
2019-04-29T06:08:52.188Z,88.90
2019-04-29T06:11:23.359Z,87.30
2019-04-29T06:13:53.205Z,86.00
2019-04-29T06:16:23.089Z,84.40
2019-04-29T06:19:00.439Z,84.70
2019-04-29T06:24:06.306Z,86.50
2019-04-29T06:26:37.285Z,85.80
2019-04-29T06:29:08.526Z,85.80
2019-04-29T06:36:38.511Z,85.20
2019-04-29T06:39:09.900Z,83.10
2019-04-29T06:41:45.318Z,85.70
2019-04-29T06:44:16.746Z,85.20
2019-04-29T06:46:45.013Z,84.50
2019-04-29T06:49:14.717Z,85.20
2019-04-29T06:51:44.382Z,84.70
2019-04-29T07:01:42.889Z,84.20
2019-04-29T07:09:12.334Z,81.70
2019-04-29T07:14:14.163Z,82.30
2019-04-29T07:16:44.025Z,82.10
2019-04-29T07:19:13.961Z,82.30
2019-04-29T07:21:46.874Z,81.90
2019-04-29T07:24:15.348Z,72.80
2019-04-29T07:26:45.138Z,82.50
2019-04-29T07:29:18.071Z,81.70
2019-04-29T07:31:48.481Z,82.00
2019-04-29T07:36:48.636Z,82.00
2019-04-29T07:39:21.380Z,81.60
2019-04-29T07:41:53.786Z,81.30
2019-04-29T07:44:32.899Z,81.00
2019-04-29T07:47:01.951Z,80.50
2019-04-29T07:52:00.580Z,79.40
2019-04-29T08:02:01.400Z,77.50
2019-04-29T08:04:34.298Z,76.50
2019-04-29T08:07:08.047Z,76.10
2019-04-29T08:09:39.894Z,74.80
2019-04-29T08:12:16.177Z,73.90
2019-04-29T08:14:53.302Z,74.40
2019-04-29T08:17:18.663Z,72.00
2019-04-29T08:19:49.024Z,73.50
2019-04-29T08:22:22.845Z,71.40
2019-04-29T08:24:53.175Z,71.60
2019-04-29T08:27:39.088Z,70.80
2019-04-29T08:29:58.563Z,70.70
2019-04-29T08:32:31.596Z,70.80
2019-04-29T08:35:05.918Z,70.50
2019-04-29T08:37:37.567Z,67.40
2019-04-29T08:40:16.233Z,69.20
2019-04-29T08:42:50.733Z,67.80
2019-04-29T08:45:40.985Z,68.10
2019-04-29T08:48:15.815Z,68.50
2019-04-29T08:50:45.772Z,67.90
2019-04-29T08:53:15.682Z,66.40
2019-04-29T08:55:48.258Z,65.50
2019-04-29T08:58:19.147Z,65.50
2019-04-29T09:00:51.325Z,66.00
2019-04-29T09:06:04.255Z,65.70
2019-04-29T09:08:23.388Z,65.60
2019-04-29T09:13:22.119Z,65.40
2019-04-29T09:15:51.911Z,62.50
2019-04-29T09:18:21.509Z,63.30
2019-04-29T09:23:23.484Z,62.70
2019-04-29T09:28:40.169Z,61.00
2019-04-29T09:31:09.985Z,60.50
2019-04-29T09:33:48.900Z,60.20
2019-04-29T09:36:18.194Z,60.30
2019-04-29T09:38:48.178Z,60.70
2019-04-29T09:41:39.996Z,61.10
2019-04-29T09:44:40.281Z,60.20
2019-04-29T09:47:19.302Z,59.20
2019-04-29T09:49:49.249Z,59.10
2019-04-29T10:00:40.740Z,56.80
2019-04-29T10:04:08.771Z,56.60
2019-04-29T10:10:49.867Z,57.20
2019-04-29T10:13:19.584Z,56.80
2019-04-29T10:16:06.314Z,57.00
2019-04-29T10:19:00.614Z,57.70
2019-04-29T10:21:32.652Z,57.90
2019-04-29T10:24:02.286Z,57.80
2019-04-29T10:26:32.211Z,57.90
2019-04-29T10:29:09.177Z,58.60
2019-04-29T10:31:40.376Z,58.00
2019-04-29T10:34:12.713Z,59.50
2019-04-29T10:36:42.346Z,57.70
2019-04-29T10:39:31.242Z,58.10
2019-04-29T10:42:01.917Z,58.10
2019-04-29T10:44:40.124Z,56.50
2019-04-29T10:47:30.481Z,44.70
2019-04-29T10:50:03.952Z,55.90
2019-04-29T10:52:34.452Z,55.90
2019-04-29T10:55:05.546Z,55.90
2019-04-29T10:57:35.788Z,57.60
2019-04-29T11:00:17.038Z,56.20
2019-04-29T11:02:49.488Z,51.90
2019-04-29T11:06:00.306Z,56.90
2019-04-29T11:08:43.150Z,56.60
2019-04-29T11:11:22.682Z,55.50
2019-04-29T11:13:48.409Z,55.50
2019-04-29T11:16:15.704Z,55.10
2019-04-29T11:18:46.360Z,55.10
2019-04-29T11:21:16.219Z,55.50
2019-04-29T11:23:54.853Z,54.90
2019-04-29T11:26:44.725Z,55.00
2019-04-29T11:29:13.534Z,55.50
2019-04-29T11:31:43.239Z,55.10
2019-04-29T11:34:37.579Z,56.90
2019-04-29T11:37:13.718Z,56.60
2019-04-29T11:39:46.192Z,55.60
2019-04-29T11:42:14.816Z,55.00
2019-04-29T11:44:44.422Z,55.10
2019-04-29T11:47:16.612Z,54.30
2019-04-29T11:50:02.403Z,55.00
2019-04-29T11:52:32.198Z,55.60
2019-04-29T11:55:01.930Z,55.30
2019-04-29T11:57:40.955Z,55.90
2019-04-29T12:00:24.690Z,54.80
2019-04-29T12:02:58.631Z,54.60
2019-04-29T12:05:44.787Z,54.50
2019-04-29T12:08:16.934Z,55.20
2019-04-29T12:10:52.028Z,55.00
2019-04-29T12:13:28.213Z,56.40
2019-04-29T12:16:07.193Z,54.00
2019-04-29T12:18:46.149Z,55.10
2019-04-29T12:21:25.849Z,53.60
2019-04-29T12:23:59.145Z,54.20
2019-04-29T12:26:35.594Z,52.40
2019-04-29T12:29:09.489Z,44.50
2019-04-29T12:32:15.893Z,54.10
2019-04-29T12:35:12.268Z,54.20
2019-04-29T12:41:20.435Z,53.50
2019-04-29T12:43:59.463Z,53.90
2019-04-29T12:46:58.635Z,53.70
2019-04-29T12:49:30.885Z,52.70
2019-04-29T12:52:00.474Z,43.60
2019-04-29T12:57:23.430Z,52.30
2019-04-29T12:59:54.201Z,52.10
2019-04-29T13:02:41.312Z,51.50
2019-04-29T13:05:34.186Z,52.90
2019-04-29T13:08:12.336Z,42.60
2019-04-29T13:10:56.536Z,42.30
2019-04-29T13:13:40.546Z,49.90
2019-04-29T13:16:20.015Z,41.80
2019-04-29T13:18:55.561Z,39.80
2019-04-29T13:21:25.193Z,41.20
2019-04-29T13:24:05.299Z,39.40
2019-04-29T13:26:28.719Z,38.40
2019-04-29T13:29:01.082Z,39.30
2019-04-29T13:31:38.229Z,38.80
2019-04-29T13:34:14.685Z,38.70
2019-04-29T13:36:34.208Z,38.00
2019-04-29T13:39:37.910Z,37.20
2019-04-29T13:41:57.058Z,35.40
2019-04-29T13:44:19.292Z,35.30
2019-04-29T13:47:16.878Z,35.00
2019-04-29T13:49:53.601Z,34.10
2019-04-29T13:52:23.356Z,32.80
2019-04-29T13:54:53.067Z,32.90
2019-04-29T13:57:24.903Z,31.90
2019-04-29T14:00:31.635Z,32.00
2019-04-29T14:03:11.648Z,31.50
2019-04-29T14:05:41.800Z,30.10
2019-04-29T14:08:15.922Z,31.50
2019-04-29T14:10:54.931Z,30.20
2019-04-29T14:13:26.061Z,29.80
2019-04-29T14:15:55.883Z,30.20
2019-04-29T14:18:25.677Z,29.70
2019-04-29T14:20:55.807Z,29.60
2019-04-29T14:23:25.935Z,30.00
2019-04-29T14:25:55.640Z,28.80
2019-04-29T14:28:28.472Z,29.20
2019-04-29T14:30:58.301Z,29.20
2019-04-29T14:33:35.066Z,29.20
2019-04-29T14:36:08.085Z,37.80
2019-04-29T14:38:40.829Z,31.10
2019-04-29T14:41:09.381Z,30.30
2019-04-29T14:43:57.021Z,39.40
2019-04-29T14:46:44.434Z,31.50
2019-04-29T14:49:21.845Z,30.20
2019-04-29T14:51:51.483Z,30.30
2019-04-29T14:54:21.573Z,30.00
2019-04-29T14:56:51.260Z,29.60
2019-04-29T14:59:21.300Z,29.40
2019-04-29T15:01:59.906Z,29.50
2019-04-29T15:04:34.184Z,30.00
2019-04-29T15:07:07.539Z,29.90
2019-04-29T15:09:46.370Z,31.00
2019-04-29T15:12:21.776Z,31.20
2019-04-29T15:15:08.721Z,30.70
2019-04-29T15:17:59.932Z,39.10
2019-04-29T15:21:01.856Z,31.60
2019-04-29T15:23:34.519Z,30.90
2019-04-29T15:26:08.166Z,32.10
2019-04-29T15:28:51.229Z,31.80
2019-04-29T15:31:26.382Z,31.60
2019-04-29T15:33:56.155Z,31.20
2019-04-29T15:36:30.735Z,31.30
2019-04-29T15:39:09.695Z,32.00
2019-04-29T15:41:33.581Z,38.60
2019-04-29T15:44:07.598Z,31.80
2019-04-29T15:46:46.273Z,30.70
2019-04-29T15:49:09.798Z,30.40
2019-04-29T15:51:39.742Z,29.90
2019-04-29T15:54:14.288Z,30.30
2019-04-29T15:56:45.109Z,30.40
2019-04-29T15:59:15.044Z,29.10
2019-04-29T16:01:54.183Z,28.40
2019-04-29T16:04:37.693Z,39.20
2019-04-29T16:07:26.676Z,37.50
2019-04-29T16:10:20.520Z,29.70
2019-04-29T16:12:53.826Z,34.90
2019-04-29T16:15:23.589Z,30.00
2019-04-29T16:17:53.442Z,29.70
2019-04-29T16:20:53.292Z,38.20
2019-04-29T16:23:18.552Z,40.00
2019-04-29T16:25:52.149Z,40.30
2019-04-29T16:28:31.758Z,41.90
2019-04-29T16:31:11.257Z,43.30
2019-04-29T16:33:37.813Z,43.20
2019-04-29T16:36:08.707Z,45.60
2019-04-29T16:38:46.391Z,46.20
2019-04-29T16:41:35.369Z,47.10
2019-04-29T16:44:05.677Z,47.80
2019-04-29T16:46:39.089Z,48.20
2019-04-29T16:49:11.865Z,47.50
2019-04-29T16:51:42.228Z,47.50
2019-04-29T16:56:43.459Z,48.50
2019-04-29T16:59:16.493Z,48.00
2019-04-29T17:01:48.147Z,48.30
2019-04-29T17:07:11.367Z,48.20
2019-04-29T17:15:23.854Z,48.50
2019-04-29T17:17:45.345Z,44.90
2019-04-29T17:23:40.285Z,49.00
2019-04-29T17:26:13.161Z,49.70
2019-04-29T17:28:58.784Z,50.00
2019-04-29T17:31:50.580Z,47.90
2019-04-29T17:37:04.621Z,50.30
2019-04-29T17:42:18.968Z,52.00
2019-04-29T17:45:10.591Z,52.70
2019-04-29T17:48:21.313Z,50.50
2019-04-29T17:51:18.501Z,38.40
2019-04-29T17:54:10.634Z,52.60
2019-04-29T17:57:27.872Z,46.10
2019-04-29T18:18:04.749Z,44.30
2019-04-29T18:21:07.460Z,37.70
2019-04-29T18:24:10.163Z,37.60
2019-04-29T18:34:15.396Z,37.60
2019-04-29T18:37:34.542Z,36.10
2019-04-29T18:40:10.754Z,36.60
2019-04-29T18:46:19.332Z,37.30
2019-04-29T18:49:02.782Z,37.40
2019-04-29T18:51:29.920Z,35.80
2019-04-29T18:54:06.534Z,36.40
2019-04-29T18:56:40.568Z,37.10
2019-04-29T18:59:42.095Z,37.10
2019-04-29T19:02:09.312Z,37.90
2019-04-29T19:05:06.193Z,38.60
2019-04-29T19:07:54.388Z,38.10
2019-04-29T19:10:18.255Z,37.40
2019-04-29T19:12:59.571Z,38.10
2019-04-29T19:15:25.623Z,45.80
2019-04-29T19:17:59.784Z,45.60
2019-04-29T19:20:32.042Z,46.90
2019-04-29T19:23:08.171Z,40.70
2019-04-29T19:25:35.489Z,46.10
2019-04-29T19:28:12.778Z,47.70
2019-04-29T19:30:45.123Z,49.70
2019-04-29T19:33:15.171Z,49.50
2019-04-29T19:35:47.422Z,49.50
2019-04-29T19:38:20.881Z,50.10
2019-04-29T19:40:53.088Z,50.80
2019-04-29T19:43:26.323Z,51.70
2019-04-29T19:45:57.482Z,50.20
2019-04-29T19:48:28.764Z,50.60
2019-04-29T19:51:18.075Z,50.30
2019-04-29T19:56:12.564Z,51.70
2019-04-29T19:58:43.053Z,51.90
2019-04-29T20:01:25.110Z,52.30
2019-04-29T20:04:01.486Z,52.30
2019-04-29T20:06:32.375Z,41.20
2019-04-29T20:09:12.762Z,50.80
2019-04-29T20:11:39.851Z,51.90
2019-04-29T20:14:19.278Z,51.80
2019-04-29T20:17:16.571Z,50.90
2019-04-29T20:20:10.027Z,48.00
2019-04-29T20:22:43.502Z,48.80
2019-04-29T20:27:45.753Z,49.80
2019-04-29T20:30:20.421Z,49.80
2019-04-29T20:32:52.489Z,52.00
2019-04-29T20:35:25.935Z,52.70
2019-04-29T20:37:59.770Z,55.00
2019-04-29T20:40:31.795Z,50.80
2019-04-29T20:45:29.059Z,53.30
2019-04-29T20:47:59.254Z,50.50
2019-04-29T20:50:29.556Z,51.00
2019-04-29T20:53:15.788Z,49.00
2019-04-29T20:55:46.202Z,50.90
2019-04-29T20:58:17.529Z,50.70
2019-04-29T21:00:49.499Z,55.00
2019-04-29T21:03:29.853Z,54.20
2019-04-29T21:06:02.438Z,56.40
2019-04-29T21:08:29.539Z,55.30
2019-04-29T21:11:09.555Z,56.50
2019-04-29T21:13:55.958Z,55.10
2019-04-29T21:16:36.373Z,59.90
2019-04-29T21:19:09.750Z,62.00
2019-04-29T21:21:45.468Z,56.90
2019-04-29T21:24:18.421Z,57.50
2019-04-29T21:26:46.108Z,56.60
2019-04-29T21:31:50.791Z,56.60
2019-04-29T21:34:19.464Z,60.00
2019-04-29T21:40:13.923Z,61.90
2019-04-29T21:43:01.190Z,63.10
2019-04-29T21:45:31.124Z,61.70
2019-04-29T21:48:00.898Z,62.60
2019-04-29T21:50:34.619Z,61.40
2019-04-29T21:55:33.078Z,62.10
2019-04-29T21:58:03.068Z,57.60
2019-04-29T22:00:34.920Z,60.70
2019-04-29T22:03:05.960Z,62.00
2019-04-29T22:05:37.160Z,60.30
2019-04-29T22:08:07.246Z,58.50
2019-04-29T22:10:38.666Z,60.90
2019-04-29T22:13:10.914Z,58.90
2019-04-29T22:15:42.597Z,62.10
2019-04-29T22:20:43.435Z,62.10
2019-04-29T22:23:15.211Z,62.80
2019-04-29T22:25:47.067Z,63.10
2019-04-29T22:28:19.704Z,63.00
2019-04-29T22:33:21.840Z,63.10
2019-04-29T22:35:55.477Z,63.40
2019-04-29T22:38:30.807Z,62.50
2019-04-29T22:41:05.374Z,63.10
2019-04-29T22:43:50.304Z,62.90
2019-04-29T22:46:22.551Z,63.00
2019-04-29T22:51:29.499Z,62.10
2019-04-29T22:53:59.394Z,62.20
2019-04-29T22:56:29.196Z,63.30
2019-04-29T22:59:01.036Z,62.60
2019-04-29T23:01:30.780Z,62.80
2019-04-29T23:04:00.735Z,52.20
2019-04-29T23:06:30.619Z,64.00
2019-04-29T23:09:00.296Z,58.60
2019-04-29T23:11:49.187Z,64.20
2019-04-29T23:14:25.247Z,65.10
2019-04-29T23:16:57.831Z,64.90
2019-04-29T23:19:27.492Z,65.30
2019-04-29T23:25:21.811Z,65.20
2019-04-29T23:27:55.020Z,66.40
2019-04-29T23:30:29.329Z,66.00
2019-04-29T23:32:59.432Z,65.70
2019-04-29T23:35:29.528Z,65.80
2019-04-29T23:38:04.434Z,65.90
2019-04-29T23:40:34.104Z,66.80
2019-04-29T23:43:06.306Z,65.90
2019-04-29T23:45:36.255Z,66.60
2019-04-29T23:48:09.241Z,67.20
2019-04-29T23:50:39.447Z,66.50
2019-04-29T23:53:09.237Z,67.60
2019-04-29T23:55:40.687Z,67.60
2019-04-29T23:58:32.715Z,67.80
